Playa Del Carmen, ROO, Mexico
Current Conditions -  °F | °C
As of 8:42 PM on Thursday 20 Nov 2014 (Local Time) from MMCZ Reporting Station
Scattered Clouds Scattered Clouds  
Wind Chill: 68°   Ceiling: Unl
Heat Index: 68°   Visibility: 7mi
Dew Point: 68°   Wind: 0mph
Humidity: 100%   Direction: NA
Pressure: 30.05"   Gusts: NA
Location:  20.62°N, 87.07°W
Report Text: MMCZ 210242Z 00000KT 7SM SCT015 20/20 A3005 RMK SLP183 52027 974 8/500 AC RTS
Loading
Personal Weather Stations






























Interactive Weather Map New forecast layout! Learn more

10-Day Weather Forecast

Advertisements
Track Severe Weather on mobile